createdAt,value
2022-08-01T00:00:19.296Z,1018.44
2022-08-01T00:02:19.217Z,1018.45
2022-08-01T00:04:19.245Z,1018.45
2022-08-01T00:06:19.218Z,1018.43
2022-08-01T00:08:19.201Z,1018.46
2022-08-01T00:10:19.215Z,1018.49
2022-08-01T00:12:19.210Z,1018.47
2022-08-01T00:14:19.228Z,1018.47
2022-08-01T00:16:19.240Z,1018.55
2022-08-01T00:18:19.220Z,1018.50
2022-08-01T00:20:19.224Z,1018.46
2022-08-01T00:22:19.224Z,1018.46
2022-08-01T00:24:19.225Z,1018.46
2022-08-01T00:26:19.229Z,1018.47
2022-08-01T00:28:19.220Z,1018.45
2022-08-01T00:30:19.234Z,1018.48
2022-08-01T00:32:19.262Z,1018.51
2022-08-01T00:34:19.243Z,1018.51
2022-08-01T00:36:19.234Z,1018.50
2022-08-01T00:38:19.323Z,1018.50
2022-08-01T00:40:19.225Z,1018.50
2022-08-01T00:42:19.242Z,1018.50
2022-08-01T00:44:49.247Z,1018.48
2022-08-01T00:46:49.225Z,1018.49
2022-08-01T00:48:49.287Z,1018.49
2022-08-01T00:50:49.236Z,1018.52
2022-08-01T00:52:51.239Z,1018.52
2022-08-01T00:54:49.299Z,1018.50
2022-08-01T00:56:49.233Z,1018.54
2022-08-01T00:58:49.248Z,1018.47
2022-08-01T01:00:53.850Z,1018.47
2022-08-01T01:02:49.301Z,1018.47
2022-08-01T01:04:49.265Z,1018.50
2022-08-01T01:06:49.254Z,1018.47
2022-08-01T01:08:49.321Z,1018.48
2022-08-01T01:10:49.245Z,1018.48
2022-08-01T01:12:50.238Z,1018.52
2022-08-01T01:14:49.338Z,1018.49
2022-08-01T01:16:49.332Z,1018.59
2022-08-01T01:18:49.339Z,1018.59
2022-08-01T01:20:49.327Z,1018.59
2022-08-01T01:22:49.410Z,1018.63
2022-08-01T01:24:49.342Z,1018.63
2022-08-01T01:26:49.280Z,1018.71
2022-08-01T01:28:49.338Z,1018.75
2022-08-01T01:30:49.287Z,1018.75
2022-08-01T01:32:49.355Z,1018.69
2022-08-01T01:34:49.329Z,1018.67
2022-08-01T01:36:49.362Z,1018.72
2022-08-01T01:38:49.382Z,1018.72
2022-08-01T01:40:49.288Z,1018.72
2022-08-01T01:44:50.484Z,1018.72
2022-08-01T01:46:50.466Z,1018.72
2022-08-01T01:48:50.523Z,1018.72
2022-08-01T01:50:50.489Z,1018.71
2022-08-01T01:52:50.814Z,1018.67
2022-08-01T01:54:50.483Z,1018.70
2022-08-01T01:56:50.470Z,1018.69
2022-08-01T01:58:50.470Z,1018.69
2022-08-01T02:00:50.602Z,1018.69
2022-08-01T02:02:50.544Z,1018.70
2022-08-01T02:04:50.470Z,1018.73
2022-08-01T02:06:50.510Z,1018.73
2022-08-01T02:08:50.490Z,1018.71
2022-08-01T02:10:50.484Z,1018.71
2022-08-01T02:12:50.502Z,1018.79
2022-08-01T02:14:50.497Z,1018.76
2022-08-01T02:16:50.488Z,1018.76
2022-08-01T02:18:50.583Z,1018.78
2022-08-01T02:20:50.542Z,1018.83
2022-08-01T02:22:50.593Z,1018.84
2022-08-01T02:24:50.507Z,1018.83
2022-08-01T02:26:50.536Z,1018.83
2022-08-01T02:28:50.523Z,1018.85
2022-08-01T02:30:50.500Z,1018.84
2022-08-01T02:32:50.519Z,1018.86
2022-08-01T02:34:50.522Z,1018.85
2022-08-01T02:36:50.912Z,1018.85
2022-08-01T02:38:50.501Z,1018.85
2022-08-01T02:40:50.512Z,1018.85
2022-08-01T02:42:50.543Z,1018.80
2022-08-01T02:44:50.514Z,1018.80
2022-08-01T02:47:20.510Z,1018.83
2022-08-01T02:49:20.624Z,1018.83
2022-08-01T02:51:20.515Z,1018.84
2022-08-01T02:53:20.541Z,1018.86
2022-08-01T02:55:20.527Z,1018.87
2022-08-01T02:57:20.671Z,1018.84
2022-08-01T02:59:22.294Z,1018.84
2022-08-01T03:01:20.544Z,1018.82
2022-08-01T03:03:20.548Z,1018.84
2022-08-01T03:05:20.579Z,1018.86
2022-08-01T03:07:20.542Z,1018.86
2022-08-01T03:09:20.524Z,1018.88
2022-08-01T03:11:20.622Z,1018.88
2022-08-01T03:13:20.537Z,1018.91
2022-08-01T03:15:20.537Z,1018.88
2022-08-01T03:17:20.598Z,1018.88
2022-08-01T03:19:20.539Z,1018.92
2022-08-01T03:21:20.546Z,1018.92
2022-08-01T03:23:20.560Z,1018.96
2022-08-01T03:25:20.562Z,1018.91
2022-08-01T03:27:20.629Z,1018.91
2022-08-01T03:29:20.554Z,1018.91
2022-08-01T03:31:20.535Z,1018.90
2022-08-01T03:33:20.559Z,1018.90
2022-08-01T03:35:20.558Z,1018.96
2022-08-01T03:37:20.539Z,1018.96
2022-08-01T03:39:20.559Z,1018.99
2022-08-01T03:41:20.558Z,1019.00
2022-08-01T03:43:20.564Z,1019.00
2022-08-01T03:45:20.581Z,1019.00
2022-08-01T03:47:20.571Z,1019.02
2022-08-01T03:49:20.646Z,1019.04
2022-08-01T03:51:20.574Z,1019.03
2022-08-01T03:53:20.629Z,1018.97
2022-08-01T03:55:20.574Z,1018.97
2022-08-01T03:57:35.119Z,1019.03
2022-08-01T03:59:20.578Z,1019.02
2022-08-01T04:01:20.638Z,1019.02
2022-08-01T04:03:20.599Z,1019.00
2022-08-01T04:05:20.583Z,1019.00
2022-08-01T04:07:20.611Z,1018.97
2022-08-01T04:09:20.583Z,1018.98
2022-08-01T04:11:20.578Z,1019.01
2022-08-01T04:13:20.594Z,1019.01
2022-08-01T04:15:20.586Z,1019.05
2022-08-01T04:17:20.582Z,1019.05
2022-08-01T04:19:20.590Z,1019.09
2022-08-01T04:21:20.588Z,1019.13
2022-08-01T04:23:20.671Z,1019.13
2022-08-01T04:25:20.601Z,1019.18
2022-08-01T04:27:50.852Z,1019.18
2022-08-01T04:29:20.687Z,1019.22
2022-08-01T04:31:20.598Z,1019.25
2022-08-01T04:33:20.608Z,1019.25
2022-08-01T04:35:23.494Z,1019.28
2022-08-01T04:37:20.610Z,1019.28
2022-08-01T04:39:20.595Z,1019.27
2022-08-01T04:41:20.619Z,1019.27
2022-08-01T04:43:20.610Z,1019.27
2022-08-01T04:45:50.601Z,1019.27
2022-08-01T04:47:50.611Z,1019.26
2022-08-01T04:49:50.612Z,1019.28
2022-08-01T04:51:50.615Z,1019.28
2022-08-01T04:53:50.602Z,1019.31
2022-08-01T04:55:50.614Z,1019.33
2022-08-01T04:57:50.713Z,1019.36
2022-08-01T04:59:50.624Z,1019.32
2022-08-01T05:01:50.748Z,1019.32
2022-08-01T05:03:50.658Z,1019.41
2022-08-01T05:05:50.611Z,1019.40
2022-08-01T05:07:50.633Z,1019.46
2022-08-01T05:09:50.613Z,1019.46
2022-08-01T05:11:50.613Z,1019.44
2022-08-01T05:13:50.673Z,1019.49
2022-08-01T05:15:50.629Z,1019.48
2022-08-01T05:17:50.642Z,1019.49
2022-08-01T05:19:50.746Z,1019.49
2022-08-01T05:21:50.640Z,1019.46
2022-08-01T05:23:50.646Z,1019.46
2022-08-01T05:25:56.900Z,1019.49
2022-08-01T05:27:51.094Z,1019.46
2022-08-01T05:29:50.633Z,1019.46
2022-08-01T05:31:50.718Z,1019.47
2022-08-01T05:33:50.644Z,1019.47
2022-08-01T05:35:50.655Z,1019.47
2022-08-01T05:37:50.656Z,1019.47
2022-08-01T05:39:50.634Z,1019.48
2022-08-01T05:41:50.671Z,1019.45
2022-08-01T05:43:50.673Z,1019.49
2022-08-01T05:45:50.656Z,1019.51
2022-08-01T05:47:50.747Z,1019.51
2022-08-01T05:49:50.754Z,1019.48
2022-08-01T05:51:50.727Z,1019.54
2022-08-01T05:53:50.647Z,1019.52
2022-08-01T05:55:50.692Z,1019.55
2022-08-01T05:57:50.666Z,1019.55
2022-08-01T05:59:50.660Z,1019.52
2022-08-01T06:01:50.736Z,1019.52
2022-08-01T06:03:50.669Z,1019.52
2022-08-01T06:05:50.660Z,1019.50
2022-08-01T06:07:50.672Z,1019.50
2022-08-01T06:09:50.659Z,1019.52
2022-08-01T06:11:50.666Z,1019.57
2022-08-01T06:13:50.683Z,1019.59
2022-08-01T06:15:50.737Z,1019.59
2022-08-01T06:17:50.671Z,1019.58
2022-08-01T06:19:50.680Z,1019.59
2022-08-01T06:21:50.775Z,1019.54
2022-08-01T06:23:50.698Z,1019.57
2022-08-01T06:25:50.679Z,1019.57
2022-08-01T06:27:50.800Z,1019.63
2022-08-01T06:29:53.605Z,1019.58
2022-08-01T06:31:50.704Z,1019.66
2022-08-01T06:33:50.683Z,1019.68
2022-08-01T06:35:50.686Z,1019.68
2022-08-01T06:37:50.690Z,1019.75
2022-08-01T06:39:51.020Z,1019.75
2022-08-01T06:41:50.705Z,1019.76
2022-08-01T06:43:50.704Z,1019.76
2022-08-01T06:46:20.784Z,1019.70
2022-08-01T06:48:20.727Z,1019.70
2022-08-01T06:50:20.693Z,1019.67
2022-08-01T06:52:20.714Z,1019.70
2022-08-01T06:54:20.702Z,1019.75
2022-08-01T06:56:20.696Z,1019.77
2022-08-01T06:58:20.698Z,1019.77
2022-08-01T07:00:20.752Z,1019.71
2022-08-01T07:02:20.696Z,1019.65
2022-08-01T07:04:20.708Z,1019.62
2022-08-01T07:06:20.702Z,1019.65
2022-08-01T07:08:20.758Z,1019.65
2022-08-01T07:10:20.725Z,1019.67
2022-08-01T07:12:20.715Z,1019.69
2022-08-01T07:14:20.707Z,1019.66
2022-08-01T07:16:20.720Z,1019.66
2022-08-01T07:18:20.722Z,1019.66
2022-08-01T07:20:20.743Z,1019.65
2022-08-01T07:22:23.341Z,1019.61
2022-08-01T07:24:20.980Z,1019.61
2022-08-01T07:26:20.748Z,1019.61
2022-08-01T07:28:20.786Z,1019.62
2022-08-01T07:30:20.715Z,1019.58
2022-08-01T07:32:20.721Z,1019.62
2022-08-01T07:34:20.777Z,1019.66
2022-08-01T07:36:20.764Z,1019.66
2022-08-01T07:38:20.737Z,1019.65
2022-08-01T07:40:20.743Z,1019.68
2022-08-01T07:42:20.739Z,1019.64
2022-08-01T07:44:20.741Z,1019.64
2022-08-01T07:46:20.787Z,1019.66
2022-08-01T07:48:20.732Z,1019.60
2022-08-01T07:50:20.823Z,1019.60
2022-08-01T07:52:20.807Z,1019.64
2022-08-01T07:54:20.826Z,1019.64
2022-08-01T07:56:20.759Z,1019.62
2022-08-01T07:58:20.892Z,1019.66
2022-08-01T08:00:20.760Z,1019.66
2022-08-01T08:02:20.866Z,1019.66
2022-08-01T08:04:20.771Z,1019.66
2022-08-01T08:06:20.749Z,1019.66
2022-08-01T08:08:20.831Z,1019.55
2022-08-01T08:10:20.876Z,1019.55
2022-08-01T08:12:28.656Z,1019.55
2022-08-01T08:14:20.842Z,1019.47
2022-08-01T08:16:20.771Z,1019.49
2022-08-01T08:18:20.833Z,1019.52
2022-08-01T08:20:20.833Z,1019.53
2022-08-01T08:22:20.767Z,1019.53
2022-08-01T08:26:29.202Z,1019.49
2022-08-01T08:28:29.210Z,1019.51
2022-08-01T08:30:29.201Z,1019.50
2022-08-01T08:32:29.223Z,1019.50
2022-08-01T08:34:29.220Z,1019.53
2022-08-01T08:36:31.523Z,1019.56
2022-08-01T08:38:29.890Z,1019.53
2022-08-01T08:40:29.206Z,1019.53
2022-08-01T08:42:29.225Z,1019.54
2022-08-01T08:44:29.231Z,1019.55
2022-08-01T08:46:29.217Z,1019.55
2022-08-01T08:48:29.212Z,1019.55
2022-08-01T08:50:29.246Z,1019.55
2022-08-01T08:52:29.239Z,1019.55
2022-08-01T08:54:31.554Z,1019.56
2022-08-01T08:56:29.236Z,1019.51
2022-08-01T08:58:29.338Z,1019.49
2022-08-01T09:00:29.255Z,1019.49
2022-08-01T09:02:29.219Z,1019.55
2022-08-01T09:04:29.282Z,1019.53
2022-08-01T09:06:29.251Z,1019.52
2022-08-01T09:08:29.245Z,1019.49
2022-08-01T09:10:29.246Z,1019.49
2022-08-01T09:12:29.311Z,1019.54
2022-08-01T09:14:29.258Z,1019.51
2022-08-01T09:16:29.241Z,1019.47
2022-08-01T09:18:29.319Z,1019.47
2022-08-01T09:20:29.253Z,1019.46
2022-08-01T09:22:59.297Z,1019.56
2022-08-01T09:24:59.258Z,1019.59
2022-08-01T09:26:59.550Z,1019.59
2022-08-01T09:28:59.277Z,1019.59
2022-08-01T09:30:59.249Z,1019.58
2022-08-01T09:32:59.354Z,1019.58
2022-08-01T09:34:59.281Z,1019.56
2022-08-01T09:36:59.291Z,1019.55
2022-08-01T09:38:59.283Z,1019.55
2022-08-01T09:40:59.293Z,1019.56
2022-08-01T09:42:59.293Z,1019.53
2022-08-01T09:44:59.275Z,1019.53
2022-08-01T09:46:59.291Z,1019.53
2022-08-01T09:48:59.334Z,1019.52
2022-08-01T09:51:00.825Z,1019.55
2022-08-01T09:52:59.308Z,1019.54
2022-08-01T09:54:59.293Z,1019.52
2022-08-01T09:56:59.295Z,1019.52
2022-08-01T09:59:01.555Z,1019.52
2022-08-01T10:00:59.295Z,1019.55
2022-08-01T10:02:59.345Z,1019.54
2022-08-01T10:05:07.427Z,1019.52
2022-08-01T10:06:59.396Z,1019.52
2022-08-01T10:08:59.314Z,1019.52
2022-08-01T10:11:00.517Z,1019.54
2022-08-01T10:12:59.315Z,1019.51
2022-08-01T10:14:59.333Z,1019.51
2022-08-01T10:17:03.013Z,1019.53
2022-08-01T10:18:59.316Z,1019.52
2022-08-01T10:20:59.334Z,1019.45
2022-08-01T10:22:59.353Z,1019.44
2022-08-01T10:24:59.329Z,1019.44
2022-08-01T10:26:59.351Z,1019.43
2022-08-01T10:28:59.335Z,1019.45
2022-08-01T10:30:59.327Z,1019.48
2022-08-01T10:32:59.378Z,1019.42
2022-08-01T10:34:59.327Z,1019.42
2022-08-01T10:36:59.306Z,1019.45
2022-08-01T10:38:59.367Z,1019.49
2022-08-01T10:40:59.348Z,1019.47
2022-08-01T10:42:59.333Z,1019.47
2022-08-01T10:44:59.346Z,1019.40
2022-08-01T10:46:59.318Z,1019.41
2022-08-01T10:48:59.336Z,1019.41
2022-08-01T10:50:59.344Z,1019.39
2022-08-01T10:52:59.499Z,1019.39
2022-08-01T10:54:59.374Z,1019.41
2022-08-01T10:56:59.346Z,1019.27
2022-08-01T10:58:59.382Z,1019.38
2022-08-01T11:00:59.632Z,1019.35
2022-08-01T11:02:59.379Z,1019.35
2022-08-01T11:04:59.352Z,1019.30
2022-08-01T11:06:59.349Z,1019.44
2022-08-01T11:08:59.412Z,1019.39
2022-08-01T11:10:59.345Z,1019.37
2022-08-01T11:12:59.353Z,1019.37
2022-08-01T11:14:59.383Z,1019.40
2022-08-01T11:16:59.359Z,1019.38
2022-08-01T11:18:59.380Z,1019.34
2022-08-01T11:21:56.341Z,1019.34
2022-08-01T11:22:59.469Z,1019.27
2022-08-01T11:24:59.373Z,1019.26
2022-08-01T11:27:31.337Z,1019.22
2022-08-01T11:29:29.390Z,1019.22
2022-08-01T11:31:29.382Z,1019.11
2022-08-01T11:33:29.373Z,1019.08
2022-08-01T11:35:29.396Z,1019.08
2022-08-01T11:37:30.572Z,1019.08
2022-08-01T11:39:29.679Z,1019.08
2022-08-01T11:41:38.815Z,1019.07
2022-08-01T11:43:29.386Z,1019.07
2022-08-01T11:45:29.448Z,1019.03
2022-08-01T11:47:29.802Z,1019.07
2022-08-01T11:49:29.625Z,1019.02
2022-08-01T11:51:29.391Z,1019.00
2022-08-01T11:53:29.397Z,1019.00
2022-08-01T11:55:31.330Z,1018.95
2022-08-01T11:57:34.199Z,1018.96
2022-08-01T11:59:37.203Z,1018.96
2022-08-01T12:01:29.400Z,1018.97
2022-08-01T12:03:33.044Z,1018.97
2022-08-01T12:05:29.433Z,1018.97
2022-08-01T12:07:29.415Z,1018.97
2022-08-01T12:09:29.413Z,1018.97
2022-08-01T12:11:37.096Z,1018.92
2022-08-01T12:13:29.456Z,1018.92
2022-08-01T12:15:29.417Z,1018.87
2022-08-01T12:17:29.450Z,1018.87
2022-08-01T12:19:29.497Z,1018.86
2022-08-01T12:21:29.438Z,1018.86
2022-08-01T12:23:29.438Z,1018.87
2022-08-01T12:25:29.441Z,1018.85
2022-08-01T12:27:29.500Z,1018.79
2022-08-01T12:29:29.421Z,1018.77
2022-08-01T12:31:29.448Z,1018.77
2022-08-01T12:33:29.438Z,1018.79
2022-08-01T12:35:29.445Z,1018.76
2022-08-01T12:37:29.447Z,1018.78
2022-08-01T12:39:29.446Z,1018.74
2022-08-01T12:41:29.548Z,1018.74
2022-08-01T12:43:29.718Z,1018.72
2022-08-01T12:45:29.456Z,1018.78
2022-08-01T12:47:29.462Z,1018.75
2022-08-01T12:49:29.626Z,1018.75
2022-08-01T12:51:29.541Z,1018.75
2022-08-01T12:53:40.784Z,1018.72
2022-08-01T12:55:34.247Z,1018.75
2022-08-01T12:57:29.489Z,1018.63
2022-08-01T12:59:29.469Z,1018.63
2022-08-01T13:01:29.501Z,1018.66
2022-08-01T13:03:29.474Z,1018.65
2022-08-01T13:05:29.467Z,1018.59
2022-08-01T13:07:29.539Z,1018.62
2022-08-01T13:09:29.470Z,1018.62
2022-08-01T13:11:29.482Z,1018.65
2022-08-01T13:13:29.484Z,1018.61
2022-08-01T13:15:29.460Z,1018.60
2022-08-01T13:17:29.475Z,1018.60
2022-08-01T13:19:29.488Z,1018.60
2022-08-01T13:21:29.494Z,1018.61
2022-08-01T13:24:03.620Z,1018.54
2022-08-01T13:25:59.506Z,1018.57
2022-08-01T13:27:59.492Z,1018.57
2022-08-01T13:29:59.505Z,1018.60
2022-08-01T13:31:59.485Z,1018.60
2022-08-01T13:34:00.283Z,1018.59
2022-08-01T13:35:59.513Z,1018.56
2022-08-01T13:37:59.514Z,1018.56
2022-08-01T13:39:59.499Z,1018.50
2022-08-01T13:41:59.518Z,1018.54
2022-08-01T13:43:59.664Z,1018.53
2022-08-01T13:45:59.507Z,1018.53
2022-08-01T13:48:11.778Z,1018.55
2022-08-01T13:49:59.550Z,1018.54
2022-08-01T13:51:59.520Z,1018.43
2022-08-01T13:53:59.515Z,1018.42
2022-08-01T13:55:59.519Z,1018.42
2022-08-01T13:57:59.518Z,1018.41
2022-08-01T13:59:59.521Z,1018.37
2022-08-01T14:01:59.513Z,1018.38
2022-08-01T14:03:59.526Z,1018.33
2022-08-01T14:05:59.535Z,1018.33
2022-08-01T14:07:59.528Z,1018.35
2022-08-01T14:10:05.027Z,1018.32
2022-08-01T14:11:59.529Z,1018.32
2022-08-01T14:13:59.688Z,1018.31
2022-08-01T14:15:59.589Z,1018.31
2022-08-01T14:17:59.534Z,1018.22
2022-08-01T14:19:59.557Z,1018.32
2022-08-01T14:21:59.534Z,1018.32
2022-08-01T14:23:59.582Z,1018.32
2022-08-01T14:26:05.313Z,1018.31
2022-08-01T14:27:59.553Z,1018.37
2022-08-01T14:30:03.872Z,1018.33
2022-08-01T14:31:59.552Z,1018.31
2022-08-01T14:33:59.545Z,1018.31
2022-08-01T14:36:05.610Z,1018.31
2022-08-01T14:37:59.548Z,1018.29
2022-08-01T14:39:59.563Z,1018.31
2022-08-01T14:41:59.552Z,1018.31
2022-08-01T14:43:59.548Z,1018.31
2022-08-01T14:45:59.875Z,1018.27
2022-08-01T14:47:59.563Z,1018.36
2022-08-01T14:49:59.634Z,1018.40
2022-08-01T14:51:59.660Z,1018.40
2022-08-01T14:53:59.556Z,1018.40
2022-08-01T14:55:59.608Z,1018.34
2022-08-01T14:57:59.616Z,1018.41
2022-08-01T14:59:59.565Z,1018.41
2022-08-01T15:01:59.650Z,1018.41
2022-08-01T15:03:59.642Z,1018.38
2022-08-01T15:05:59.832Z,1018.42
2022-08-01T15:07:59.667Z,1018.41
2022-08-01T15:09:59.635Z,1018.43
2022-08-01T15:11:59.663Z,1018.43
2022-08-01T15:13:59.585Z,1018.40
2022-08-01T15:15:59.808Z,1018.42
2022-08-01T15:17:59.655Z,1018.39
2022-08-01T15:19:59.730Z,1018.39
2022-08-01T15:22:03.455Z,1018.38
2022-08-01T15:23:59.590Z,1018.40
2022-08-01T15:28:29.615Z,1018.38
2022-08-01T15:34:22.147Z,1018.41
2022-08-01T15:36:25.741Z,1018.40
2022-08-01T15:38:22.132Z,1018.41
2022-08-01T15:40:22.140Z,1018.39
2022-08-01T15:42:25.550Z,1018.38
2022-08-01T15:44:22.137Z,1018.38
2022-08-01T15:46:22.159Z,1018.33
2022-08-01T15:48:22.149Z,1018.37
2022-08-01T15:50:22.130Z,1018.39
2022-08-01T15:52:22.998Z,1018.39
2022-08-01T15:54:22.169Z,1018.38
2022-08-01T15:56:22.194Z,1018.41
2022-08-01T15:58:22.234Z,1018.36
2022-08-01T16:00:22.248Z,1018.36
2022-08-01T16:02:22.260Z,1018.36
2022-08-01T16:04:22.152Z,1018.32
2022-08-01T16:06:22.156Z,1018.35
2022-08-01T16:08:22.174Z,1018.31
2022-08-01T16:10:22.166Z,1018.28
2022-08-01T16:12:22.180Z,1018.28
2022-08-01T16:14:22.170Z,1018.28
2022-08-01T16:16:22.172Z,1018.21
2022-08-01T16:18:22.180Z,1018.24
2022-08-01T16:20:22.190Z,1018.24
2022-08-01T16:22:22.179Z,1018.26
2022-08-01T16:24:22.205Z,1018.29
2022-08-01T16:26:27.397Z,1018.28
2022-08-01T16:28:22.299Z,1018.25
2022-08-01T16:30:22.191Z,1018.25
2022-08-01T16:32:27.655Z,1018.23
2022-08-01T16:34:23.665Z,1018.18
2022-08-01T16:36:23.319Z,1018.19
2022-08-01T16:38:22.242Z,1018.26
2022-08-01T16:40:22.189Z,1018.26
2022-08-01T16:42:22.224Z,1018.24
2022-08-01T16:44:33.515Z,1018.30
2022-08-01T16:46:22.202Z,1018.22
2022-08-01T16:48:22.188Z,1018.22
2022-08-01T16:50:28.726Z,1018.17
2022-08-01T16:52:22.213Z,1018.18
2022-08-01T16:54:24.504Z,1018.18
2022-08-01T16:56:22.190Z,1018.16
2022-08-01T16:58:27.458Z,1018.16
2022-08-01T17:00:56.900Z,1018.16
2022-08-01T17:02:52.295Z,1018.15
2022-08-01T17:04:52.219Z,1018.26
2022-08-01T17:06:52.223Z,1018.33
2022-08-01T17:08:52.210Z,1018.33
2022-08-01T17:10:52.213Z,1018.52
2022-08-01T17:12:52.351Z,1018.63
2022-08-01T17:14:52.233Z,1018.82
2022-08-01T17:16:52.337Z,1018.75
2022-08-01T17:18:52.216Z,1018.75
2022-08-01T17:20:52.228Z,1018.81
2022-08-01T17:22:52.296Z,1019.00
2022-08-01T17:24:52.243Z,1018.85
2022-08-01T17:26:52.248Z,1018.85
2022-08-01T17:28:52.230Z,1018.87
2022-08-01T17:30:52.433Z,1018.83
2022-08-01T17:32:52.301Z,1018.85
2022-08-01T17:34:52.274Z,1018.85
2022-08-01T17:36:52.232Z,1018.85
2022-08-01T17:38:52.293Z,1018.84
2022-08-01T17:40:52.319Z,1018.79
2022-08-01T17:42:52.259Z,1018.82
2022-08-01T17:44:54.284Z,1018.85
2022-08-01T17:46:52.267Z,1018.85
2022-08-01T17:48:52.296Z,1018.80
2022-08-01T17:50:52.346Z,1018.82
2022-08-01T17:52:52.270Z,1018.80
2022-08-01T17:54:52.295Z,1018.80
2022-08-01T17:56:52.343Z,1018.78
2022-08-01T17:58:52.450Z,1018.82
2022-08-01T18:00:52.337Z,1018.84
2022-08-01T18:02:52.281Z,1018.88
2022-08-01T18:04:52.321Z,1018.88
2022-08-01T18:07:10.580Z,1018.92
2022-08-01T18:08:53.274Z,1018.92
2022-08-01T18:10:52.271Z,1018.91
2022-08-01T18:12:52.309Z,1018.87
2022-08-01T18:14:52.334Z,1018.87
2022-08-01T18:16:52.333Z,1018.87
2022-08-01T18:18:52.270Z,1018.84
2022-08-01T18:20:52.368Z,1018.89
2022-08-01T18:22:52.326Z,1018.89
2022-08-01T18:24:52.275Z,1018.87
2022-08-01T18:26:52.273Z,1018.91
2022-08-01T18:28:52.356Z,1018.94
2022-08-01T18:30:52.349Z,1018.99
2022-08-01T18:32:52.316Z,1018.99
2022-08-01T18:34:52.371Z,1018.99
2022-08-01T18:36:52.423Z,1018.98
2022-08-01T18:38:52.327Z,1019.04
2022-08-01T18:40:52.307Z,1019.05
2022-08-01T18:42:52.345Z,1019.05
2022-08-01T18:44:52.369Z,1019.09
2022-08-01T18:46:52.363Z,1019.08
2022-08-01T18:48:52.447Z,1019.08
2022-08-01T18:50:52.412Z,1019.08
2022-08-01T18:52:52.332Z,1019.08
2022-08-01T18:54:52.450Z,1019.10
2022-08-01T18:56:52.325Z,1019.10
2022-08-01T18:58:52.385Z,1019.15
2022-08-01T19:00:52.397Z,1019.15
2022-08-01T19:02:52.433Z,1019.16
2022-08-01T19:05:22.396Z,1019.16
2022-08-01T19:07:39.496Z,1019.17
2022-08-01T19:09:22.350Z,1019.18
2022-08-01T19:11:22.329Z,1019.18
2022-08-01T19:13:22.413Z,1019.15
2022-08-01T19:15:22.377Z,1019.15
2022-08-01T19:17:22.389Z,1019.17
2022-08-01T19:19:27.654Z,1019.15
2022-08-01T19:21:22.411Z,1019.12
2022-08-01T19:23:22.377Z,1019.12
2022-08-01T19:25:22.433Z,1019.12
2022-08-01T19:27:22.358Z,1019.13
2022-08-01T19:29:22.385Z,1019.13
2022-08-01T19:31:22.368Z,1019.20
2022-08-01T19:33:22.329Z,1019.20
2022-08-01T19:35:22.416Z,1019.21
2022-08-01T19:37:26.841Z,1019.21
2022-08-01T19:39:22.358Z,1019.25
2022-08-01T19:41:22.506Z,1019.30
2022-08-01T19:43:22.403Z,1019.30
2022-08-01T19:45:22.437Z,1019.30
2022-08-01T19:47:22.380Z,1019.30
2022-08-01T19:49:22.493Z,1019.33
2022-08-01T19:51:22.749Z,1019.33
2022-08-01T19:53:22.756Z,1019.32
2022-08-01T19:55:22.592Z,1019.34
2022-08-01T19:57:22.493Z,1019.34
2022-08-01T19:59:22.424Z,1019.36
2022-08-01T20:01:22.384Z,1019.36
2022-08-01T20:03:22.492Z,1019.38
2022-08-01T20:05:22.441Z,1019.42
2022-08-01T20:07:22.446Z,1019.48
2022-08-01T20:09:22.410Z,1019.49
2022-08-01T20:11:22.497Z,1019.49
2022-08-01T20:13:22.395Z,1019.59
2022-08-01T20:15:22.382Z,1019.61
2022-08-01T20:17:22.376Z,1019.61
2022-08-01T20:19:22.390Z,1019.76
2022-08-01T20:21:22.439Z,1019.76
2022-08-01T20:23:22.486Z,1019.86
2022-08-01T20:25:22.497Z,1019.90
2022-08-01T20:27:22.477Z,1019.90
2022-08-01T20:29:22.440Z,1019.90
2022-08-01T20:31:22.430Z,1019.91
2022-08-01T20:33:22.388Z,1019.96
2022-08-01T20:35:51.624Z,1019.98
2022-08-01T20:38:05.784Z,1020.02
2022-08-01T20:39:22.883Z,1020.02
2022-08-01T20:41:22.480Z,1020.07
2022-08-01T20:43:22.399Z,1020.10
2022-08-01T20:45:22.452Z,1020.11
2022-08-01T20:47:22.424Z,1020.18
2022-08-01T20:49:22.466Z,1020.18
2022-08-01T20:51:22.450Z,1020.25
2022-08-01T20:53:22.401Z,1020.41
2022-08-01T20:55:22.451Z,1020.42
2022-08-01T20:57:22.414Z,1020.42
2022-08-01T20:59:39.658Z,1020.42
2022-08-01T21:01:22.390Z,1020.57
2022-08-01T21:03:22.401Z,1020.66
2022-08-01T21:05:22.448Z,1020.65
2022-08-01T21:07:52.503Z,1020.65
2022-08-01T21:09:52.411Z,1020.71
2022-08-01T21:11:52.411Z,1020.66
2022-08-01T21:13:52.432Z,1020.71
2022-08-01T21:16:22.947Z,1020.65
2022-08-01T21:17:52.431Z,1020.65
2022-08-01T21:19:52.403Z,1020.64
2022-08-01T21:21:52.474Z,1020.70
2022-08-01T21:23:52.420Z,1020.66
2022-08-01T21:25:52.500Z,1020.66
2022-08-01T21:27:52.416Z,1020.61
2022-08-01T21:29:52.436Z,1020.61
2022-08-01T21:31:52.457Z,1020.60
2022-08-01T21:34:02.215Z,1020.63
2022-08-01T21:35:52.414Z,1020.63
2022-08-01T21:37:53.068Z,1020.58
2022-08-01T21:39:52.420Z,1020.58
2022-08-01T21:41:56.529Z,1020.53
2022-08-01T21:43:52.446Z,1020.61
2022-08-01T21:45:57.820Z,1020.61
2022-08-01T21:47:52.438Z,1020.59
2022-08-01T21:49:52.441Z,1020.54
2022-08-01T21:51:52.437Z,1020.59
2022-08-01T21:53:52.496Z,1020.59
2022-08-01T21:55:52.524Z,1020.58
2022-08-01T21:57:52.469Z,1020.53
2022-08-01T21:59:52.431Z,1020.53
2022-08-01T22:01:52.953Z,1020.56
2022-08-01T22:03:52.460Z,1020.56
2022-08-01T22:05:52.501Z,1020.62
2022-08-01T22:07:56.257Z,1020.60
2022-08-01T22:09:52.457Z,1020.57
2022-08-01T22:12:09.017Z,1020.59
2022-08-01T22:14:00.127Z,1020.59
2022-08-01T22:15:52.479Z,1020.58
2022-08-01T22:18:00.043Z,1020.54
2022-08-01T22:19:53.831Z,1020.54
2022-08-01T22:21:52.494Z,1020.56
2022-08-01T22:23:52.496Z,1020.56
2022-08-01T22:25:52.467Z,1020.62
2022-08-01T22:28:05.700Z,1020.69
2022-08-01T22:29:52.626Z,1020.67
2022-08-01T22:31:52.493Z,1020.67
2022-08-01T22:33:52.592Z,1020.73
2022-08-01T22:35:52.495Z,1020.68
2022-08-01T22:37:57.302Z,1020.67
2022-08-01T22:39:52.485Z,1020.67
2022-08-01T22:42:01.373Z,1020.67
2022-08-01T22:46:08.799Z,1020.57
2022-08-01T22:48:08.810Z,1020.54
2022-08-01T22:50:08.806Z,1020.54
2022-08-01T22:52:09.184Z,1020.59
2022-08-01T22:54:08.820Z,1020.59
2022-08-01T22:56:08.803Z,1020.59
2022-08-01T22:58:08.816Z,1020.54
2022-08-01T23:00:08.852Z,1020.54
2022-08-01T23:02:09.284Z,1020.50
2022-08-01T23:04:08.807Z,1020.50
2022-08-01T23:06:08.817Z,1020.47
2022-08-01T23:08:10.596Z,1020.45
2022-08-01T23:10:08.814Z,1020.44
2022-08-01T23:12:09.104Z,1020.42
2022-08-01T23:14:08.890Z,1020.42
2022-08-01T23:16:08.920Z,1020.46
2022-08-01T23:18:08.927Z,1020.41
2022-08-01T23:20:08.813Z,1020.32
2022-08-01T23:22:09.202Z,1020.34
2022-08-01T23:24:08.820Z,1020.34
2022-08-01T23:26:08.824Z,1020.36
2022-08-01T23:28:08.833Z,1020.40
2022-08-01T23:30:08.846Z,1020.46
2022-08-01T23:32:08.937Z,1020.46
2022-08-01T23:34:08.820Z,1020.43
2022-08-01T23:36:08.832Z,1020.42
2022-08-01T23:38:08.881Z,1020.37
2022-08-01T23:40:08.841Z,1020.37
2022-08-01T23:42:09.330Z,1020.37
2022-08-01T23:44:08.856Z,1020.43
2022-08-01T23:46:08.842Z,1020.44
2022-08-01T23:48:08.859Z,1020.36
2022-08-01T23:50:08.848Z,1020.33
2022-08-01T23:52:09.176Z,1020.33
2022-08-01T23:54:08.847Z,1020.30
2022-08-01T23:56:08.886Z,1020.26
2022-08-01T23:58:08.838Z,1020.27
